This is the latest recevied weather packets stored in our database for station/object KN6RO-14. If no packets are shown the sender has not sent any weather packets the latest 10 day(s).
| Time | Temp. | Humidity | Pressure | Rain* | Wind** | Luminosity | Snow |
|---|---|---|---|---|---|---|---|
| 1777838054 | 16.11° C | 39% | 1018.4 hPa | 0 mm | - | - | - |
| 1777836254 | 16.11° C | 44% | 1018.7 hPa | 0 mm | - | - | - |
| 1777834454 | 16.67° C | 44% | 1019.2 hPa | 0 mm | - | - | - |
| 1777832654 | 17.22° C | 42% | 1019.1 hPa | 0 mm | - | - | - |
| 1777830854 | 16.67° C | 45% | 1019.3 hPa | 0 mm | - | - | - |
| 1777829054 | 16.67° C | 43% | 1019.5 hPa | 0 mm | - | - | - |
| 1777827254 | 16.11° C | 44% | 1019.9 hPa | 0 mm | - | - | - |
| 1777825454 | 16.67° C | 43% | 1020.2 hPa | 0 mm | - | - | - |
| 1777823654 | 15.56° C | 48% | 1020.1 hPa | 0 mm | - | - | - |
| 1777821854 | 15° C | 46% | 1020.3 hPa | 0 mm | - | - | - |
| 1777820054 | 14.44° C | 54% | 1020.2 hPa | 0 mm | - | - | - |
| 1777818254 | 15° C | 51% | 1020.1 hPa | 0 mm | - | - | - |
| 1777816454 | 12.78° C | 54% | 1020.1 hPa | 0 mm | - | - | - |
| 1777814654 | 11.11° C | 57% | 1019.8 hPa | 0 mm | - | - | - |
| 1777812854 | 11.11° C | 61% | 1019.6 hPa | 0 mm | - | - | - |
| 1777811055 | 10° C | 61% | 1019.6 hPa | 0 mm | - | - | - |
| 1777809254 | 9.44° C | 63% | 1019.6 hPa | 0 mm | - | - | - |
| 1777807454 | 8.33° C | 65% | 1019.5 hPa | 0 mm | - | - | - |
| 1777805655 | 7.78° C | 68% | 1019 hPa | 0 mm | - | - | - |
| 1777803855 | 7.22° C | 70% | 1018.7 hPa | 0 mm | - | - | - |
| 1777802055 | 8.33° C | 67% | 1018.2 hPa | 0 mm | - | - | - |
| 1777800255 | 8.33° C | 64% | 1018 hPa | 0 mm | - | - | - |
| 1777798455 | 7.78° C | 67% | 1017.8 hPa | 0 mm | - | - | - |
| 1777796655 | 8.33° C | 65% | 1017.6 hPa | 0 mm | - | - | - |
| 1777794855 | 8.89° C | 62% | 1017.3 hPa | 0 mm | - | - | - |
* Rain latest hour (hover to see other rain measurements)
** Current wind speed in m/s (hover to see current wind gust speed)